Bois de Breux - Hors Challenge

Le Jogging de Bois de Breux (11.00 km)

Classement complet

le classement original se trouve sur : http://www.inedichrono.be  
 
LE JOGGING DE BOIS-DE-BREUX
DISTANCE 11.00 km
dimanche 09 octobre 2016
 
Place dos NOM Catégorie Pl/cat temps temps/km Vitesse
1 51 PIERRON OLIVIER V1 1 00:40:48 03:43 16.18
2 109 MULDERS SAMUEL S 1 00:43:05 03:55 15.32
3 72 COUTREZ ALEXANDRE S 2 00:43:35 03:58 15.14
4 5 CHEVALIER BENOIT EG 1 00:46:35 04:14 14.17
5 131 KAVIHURA JEAN S 3 00:46:42 04:15 14.13
6 80 NYSSEN SEBASTIEN V1 2 00:46:43 04:15 14.13
7 108 RYSENAER MARC V1 3 00:46:57 04:16 14.06
8 42 JAMAR DE BOLSEE GUILLAUME S 4 00:47:27 04:19 13.91
9 47 JURDAN ERIC V1 4 00:47:32 04:19 13.88
10 43 DUPONT JOAQUIM S 5 00:50:12 04:34 13.15
11 77 DUTZ OLIVIER V2 1 00:50:18 04:34 13.12
12 45 EVRARD ROLAND S 6 00:50:26 04:35 13.09
13 97 PIERRON CATHERINE D 1 00:50:28 04:35 13.08
14 130 VANBRABANT RAPHAEL V1 5 00:50:39 04:36 13.03
15 92 OLEFS ANTONINO S 7 00:50:54 04:38 12.97
16 115 JUVIGNE MARTIN S 8 00:51:19 04:40 12.86
17 137 DEDRY ANTOINE S 9 00:51:29 04:41 12.82
18 54 BARNABÉ MICHEL V2 2 00:51:41 04:42 12.77
19 76 EVRARD BENJAMIN EG 2 00:52:05 04:44 12.67
20 12 HENNEN OLIVIER V1 6 00:52:06 04:44 12.67
21 86 KEIL YVES V1 7 00:52:12 04:45 12.64
22 100 RADERMECKER XAVIER V1 8 00:52:21 04:46 12.61
23 75 EVRARD JEAN-PIERRE V1 9 00:53:10 04:50 12.41
24 33 VAN KERKHOVEN MARTIN S 10 00:53:21 04:51 12.37
25 103 WARNIMONT ALAIN V2 3 00:53:26 04:51 12.35
26 46 KNAPEN LAURENT V2 4 00:53:34 04:52 12.32
27 30 BYNENS NICOLAS V3 1 00:53:38 04:53 12.31
28 11 HENDRICK SÉBASTIEN EG 3 00:54:07 04:55 12.20
29 67 PISCART FRANCOISE A2 1 00:54:09 04:55 12.19
30 98 TOSI IRENE D 2 00:54:31 04:57 12.11
31 16 LECOMTE ROMIN EG 4 00:54:42 04:58 12.07
32 31 KAESMACHER PHILIPPE V2 5 00:54:54 04:59 12.02
33 58 FORTEMPS JEAN V2 6 00:55:21 05:02 11.92
34 83 D'HOEY GEORGES V2 7 00:55:22 05:02 11.92
35 117 MARTIN ERIC V2 8 00:55:25 05:02 11.91
36 81 GREGOIRE JOEL V1 10 00:55:40 05:04 11.86
37 91 LEMIRE FREDERIC V1 11 00:55:41 05:04 11.85
38 119 DISPAS CÉLINE A1 1 00:55:50 05:05 11.82
39 68 URBANI JEAN-MARC V1 12 00:56:14 05:07 11.74
40 120 FRANCQ SEBASTIEN S 11 00:56:28 05:08 11.69
41 71 GAHIDE RENAUD V1 13 00:56:32 05:08 11.67
42 116 DEFLANDRE BENOIT S 12 00:56:38 05:09 11.65
43 19 LOURTIE HUGO EG 5 00:56:38 05:09 11.65
44 60 DIVITA ANTONIO V2 9 00:56:52 05:10 11.61
45 129 SEVRIN FREDERIC S 13 00:57:17 05:12 11.52
46 102 DEFLANDRE JEAN-MARIE V2 10 00:57:23 05:13 11.50
47 105 KEVELAER BEATRICE A1 2 00:57:25 05:13 11.49
48 40 HARDY GEOFFREY V1 14 00:57:52 05:16 11.41
49 41 RUBERTO PASQUALE V3 2 00:58:45 05:20 11.23
50 18 LOURTIE ANTOINE EG 6 00:58:45 05:20 11.23
51 85 POSLON ALAIN V1 15 00:58:54 05:21 11.21
52 66 MEKOUILLE JACOMO V1 16 00:59:11 05:23 11.15
53 95 MICHEL HUGO EG 7 00:59:16 05:23 11.14
54 14 KOTARA SAMUEL EG 8 00:59:18 05:23 11.13
55 114 VERBELEN VALENTIN S 14 00:59:23 05:24 11.11
56 84 MAROT BERNARD V3 3 00:59:25 05:24 11.11
57 55 BOSCOLO MANUEL V1 17 00:59:28 05:24 11.10
58 20 MAILLEUX ANOUCHKA D 3 00:59:29 05:24 11.10
59 78 DELNOOZ XAVIER S 15 00:59:51 05:26 11.03
60 96 DETHEUX OLIVIER V1 18 00:59:55 05:27 11.02
61 107 DUPONT DOMINIQUE V1 19 01:00:06 05:28 10.98
62 22 MASSIGNAN YANIS EG 9 01:00:38 05:31 10.89
63 21 MASSIGNAN ILIAS EG 10 01:00:38 05:31 10.89
64 65 LIBOTTE VIRGINIE A1 3 01:00:53 05:32 10.84
65 136 BISSOT ALAIN V1 20 01:01:04 05:33 10.81
66 88 NARDOZI CLAUDIO V2 11 01:01:07 05:33 10.80
67 121 KREUSCH VINCENT V2 12 01:01:25 05:35 10.75
68 104 BOURGUIGNON PIERRE V1 21 01:01:25 05:35 10.75
69 132 KREUSCH MARIE D 4 01:01:34 05:36 10.72
70 89 MANFE DIMITRI S 16 01:01:38 05:36 10.71
71 29 DEWIL JEAN V2 13 01:01:46 05:37 10.69
72 87 HANUSSEK HERVE S 17 01:01:48 05:37 10.68
73 27 SOUILEM NAJI EG 11 01:02:29 05:41 10.56
74 13 JURDAN PIERRE EG 12 01:02:43 05:42 10.52
75 122 BATTISTINI LUCIANO V3 4 01:02:44 05:42 10.52
76 32 CLOSSET DIDIER V1 22 01:02:52 05:43 10.50
77 50 DE CECCO JONATHAN S 18 01:02:58 05:43 10.48
78 106 DEVILLERS ALAIN V2 14 01:03:21 05:46 10.42
79 44 IMMERIX JEAN PIERRE V3 5 01:03:34 05:47 10.38
80 49 SASTRE TOM EG 13 01:03:36 05:47 10.38
81 93 KOPETZH LIONEL EG 14 01:03:36 05:47 10.38
82 52 D'OVIDIO RAPHAEL V1 23 01:04:06 05:50 10.30
83 134 BOUKILI RACHID S 19 01:04:13 05:50 10.28
84 90 MAURO THOMAS S 20 01:04:40 05:53 10.21
85 113 SENARD LUCILLE EF 1 01:04:54 05:54 10.17
86 112 SENARD MARC V2 15 01:04:54 05:54 10.17
87 110 ARNOULD NATHALIE A2 2 01:05:18 05:56 10.11
88 111 VERLAINE DOMINIQUE V1 24 01:05:18 05:56 10.11
89 128 LELOUP DOMINIQUE A2 3 01:05:37 05:58 10.06
90 133 XENZINI JULIEN S 21 01:06:01 06:00 10.00
91 3 BISSCHOPS ALEXANDRE EG 15 01:06:03 06:00 9.99
92 61 DODEMONT CELINE A1 4 01:06:18 06:02 9.95
93 7 ESSAIDI SAMIA EF 2 01:06:19 06:02 9.95
94 37 DUBOIS FREDERIC V1 25 01:06:20 06:02 9.95
95 8 GARCIA ZAMORA ILONA EF 3 01:06:24 06:02 9.94
96 17 LOURTIE THÉO EG 16 01:06:25 06:02 9.94
97 74 CHEYRELS PHILIPPE V1 26 01:06:52 06:05 9.87
98 94 MICHEL FRED V1 27 01:06:57 06:05 9.86
99 15 LALEVITCH SANDRA A1 5 01:07:26 06:08 9.79
100 35 LOURTIE OLIVIER V1 28 01:08:00 06:11 9.71
101 56 RADICCHI ADRIEN EG 17 01:08:15 06:12 9.67
102 9 GARCIA ZAMORA SALOMÉ EF 4 01:08:34 06:14 9.63
103 39 ROOSEN EMILIE A3 1 01:08:49 06:15 9.59
104 70 MODICA VINCENZO V1 29 01:09:20 06:18 9.52
105 126 DAVISTER LAURIE D 5 01:09:28 06:19 9.50
106 125 BELANNI SAMUEL HSC   01:09:28 06:19 9.50
107 127 CHARPENTIER NATHALIE A1 6 01:09:36 06:20 9.48
108 124 GERMAIN CHRISTINE A2 4 01:09:43 06:20 9.47
109 73 VICKEVORST LUC V2 16 01:10:04 06:22 9.42
110 53 DUCHESNE VINCENT S 22 01:10:27 06:24 9.37
111 23 OGILVIE LARA EF 5 01:10:43 06:26 9.33
112 34 ZADWORNY FRANÇOIS S 23 01:10:43 06:26 9.33
113 48 NOEL CECILE A2 5 01:11:25 06:30 9.24
114 99 THIRY FABIENNE A1 7 01:11:46 06:31 9.20
115 57 STAS VERONIQUE A2 6 01:12:39 06:36 9.08
116 64 MALTSCHENKOW CATHY A2 7 01:14:42 06:47 8.84
117 62 SCHMETZ PHILIPPE V2 17 01:14:48 06:48 8.82
118 24 PAQUAY JOHN EG 18 01:15:40 06:53 8.72
119 79 DELVOIE NATACHA D 6 01:15:40 06:53 8.72
120 59 PIERRON ROLAND V3 6 01:15:54 06:54 8.70
121 2 BEGASSE DOMINIQUE A2 8 01:19:34 07:14 8.29
122 101 SCHNITZLER ARIANE A1 8 01:21:31 07:25 8.10
123 123 GALLER MARIE-PIERRE A1 9 01:21:31 07:25 8.10
124 135 COLLIGNON YANNIS EG 19 01:25:02 07:44 7.76
125 1 BAUMANS CELINE EF 6 01:25:51 07:48 7.69
126 26 SADZOT HELENA D 7 01:25:51 07:48 7.69
127 36 SIKOMPE ANGEBEAU V1 30 01:30:13 08:12 7.32